Time;durP1;ratioP1;P1;durP2;ratioP2;P2;SDS_P1;SDS_P2;PMS_P1;PMS_P2;Temp;Humidity;BMP_temperature;BMP_pressure;BME280_temperature;BME280_humidity;BME280_pressure;Samples;Min_cycle;Max_cycle;Signal;HPM_P1;HPM_P2
2021/01/07 00:01:18;;;;;;;11.70;6.47;;;-0.60;99.90;;;;;;5054114;28;20178;-63
2021/01/07 00:03:44;;;;;;;11.30;6.93;;;-0.60;99.90;;;;;;5054254;28;20182;-63
2021/01/07 00:06:11;;;;;;;10.98;6.35;;;-0.60;99.90;;;;;;5053968;28;20186;-63
2021/01/07 00:08:37;;;;;;;10.73;6.70;;;-0.60;99.90;;;;;;5051686;28;20194;-63
2021/01/07 00:11:04;;;;;;;11.77;6.13;;;-0.60;99.90;;;;;;5053978;28;20182;-63
2021/01/07 00:13:31;;;;;;;11.73;6.72;;;-0.60;99.90;;;;;;5053977;28;20226;-63
2021/01/07 00:15:57;;;;;;;11.80;5.93;;;-0.70;99.90;;;;;;5052868;28;20191;-64
2021/01/07 00:18:23;;;;;;;12.18;6.93;;;-0.70;99.90;;;;;;5052668;28;20218;-63
2021/01/07 00:20:49;;;;;;;12.30;6.93;;;-0.70;99.90;;;;;;5052951;28;20673;-63
2021/01/07 00:23:15;;;;;;;14.43;6.47;;;-0.70;99.90;;;;;;5052811;28;20639;-63
2021/01/07 00:25:47;;;;;;;11.73;6.78;;;-0.60;99.90;;;;;;5051857;28;20225;-63
2021/01/07 00:28:13;;;;;;;10.88;6.53;;;-0.60;99.90;;;;;;5051336;28;20187;-63
2021/01/07 00:30:40;;;;;;;10.55;5.90;;;-0.60;99.90;;;;;;5034746;28;20175;-63
2021/01/07 00:33:06;;;;;;;9.38;5.80;;;-0.60;99.90;;;;;;5056364;28;20195;-63
2021/01/07 00:35:33;;;;;;;11.95;6.70;;;-0.60;99.90;;;;;;5054979;28;20174;-63
2021/01/07 00:37:59;;;;;;;10.75;6.15;;;-0.60;99.90;;;;;;5052288;28;20186;-63
2021/01/07 00:40:25;;;;;;;13.38;6.40;;;-0.60;99.90;;;;;;5054067;28;20175;-63
2021/01/07 00:42:51;;;;;;;11.40;6.00;;;-0.60;99.90;;;;;;5055222;28;20229;-63
2021/01/07 00:45:17;;;;;;;11.85;6.13;;;-0.60;99.90;;;;;;5055104;28;20661;-63
2021/01/07 00:47:45;;;;;;;10.93;6.10;;;-0.60;99.90;;;;;;5055487;28;20191;-63
2021/01/07 00:50:12;;;;;;;13.68;6.60;;;-0.60;99.90;;;;;;5057714;28;20175;-63
2021/01/07 00:52:39;;;;;;;11.18;6.45;;;-0.60;99.90;;;;;;5055427;28;20855;-63
2021/01/07 00:55:08;;;;;;;11.15;6.55;;;-0.60;99.90;;;;;;5058427;28;20174;-63
2021/01/07 00:57:34;;;;;;;10.85;6.28;;;-0.60;99.90;;;;;;5059585;28;20193;-63
2021/01/07 01:00:05;;;;;;;9.57;5.60;;;-0.60;99.90;;;;;;5070269;28;20181;-63
2021/01/07 01:02:31;;;;;;;10.57;5.90;;;-0.60;99.90;;;;;;5057457;28;20171;-63
2021/01/07 01:04:57;;;;;;;9.65;5.97;;;-0.60;99.90;;;;;;5057890;28;20190;-63
2021/01/07 01:07:23;;;;;;;15.48;6.75;;;-0.60;99.90;;;;;;5052450;28;20179;-63
2021/01/07 01:09:49;;;;;;;12.57;6.72;;;-0.50;99.90;;;;;;5065666;28;20533;-63
2021/01/07 01:12:16;;;;;;;10.48;6.50;;;-0.60;99.90;;;;;;5069216;28;20564;-63
2021/01/07 01:14:42;;;;;;;11.35;6.55;;;-0.60;99.90;;;;;;5061631;28;20178;-63
2021/01/07 01:17:08;;;;;;;10.82;6.50;;;-0.60;99.90;;;;;;5051668;28;20205;-63
2021/01/07 01:19:34;;;;;;;10.38;5.95;;;-0.60;99.90;;;;;;5057530;28;20635;-63
2021/01/07 01:22:01;;;;;;;11.50;6.78;;;-0.60;99.90;;;;;;5059450;28;20182;-63
2021/01/07 01:24:27;;;;;;;11.23;6.47;;;-0.60;99.90;;;;;;5060236;28;20179;-63
2021/01/07 01:26:54;;;;;;;8.90;5.70;;;-0.60;99.90;;;;;;5059672;28;20206;-63
2021/01/07 01:29:21;;;;;;;11.02;5.95;;;-0.60;99.90;;;;;;5050622;28;20186;-63
2021/01/07 01:31:47;;;;;;;10.40;6.35;;;-0.60;99.90;;;;;;5051436;28;20241;-63
2021/01/07 01:34:13;;;;;;;11.05;6.35;;;-0.60;99.90;;;;;;5051378;28;20182;-63
2021/01/07 01:36:39;;;;;;;9.43;5.70;;;-0.60;99.90;;;;;;5051512;28;20545;-63
2021/01/07 01:39:05;;;;;;;10.82;6.10;;;-0.60;99.90;;;;;;5065190;28;20650;-63
2021/01/07 01:41:38;;;;;;;12.68;6.50;;;-0.60;99.90;;;;;;5069307;28;20649;-63
2021/01/07 01:44:05;;;;;;;10.48;6.10;;;-0.60;99.90;;;;;;5062078;28;20205;-63
2021/01/07 01:46:32;;;;;;;11.52;6.40;;;-0.60;99.90;;;;;;5049663;28;20201;-63
2021/01/07 01:48:58;;;;;;;10.00;6.03;;;-0.60;99.90;;;;;;5056813;28;20186;-62
2021/01/07 01:51:24;;;;;;;9.43;5.93;;;-0.70;99.90;;;;;;5049460;28;20197;-62
2021/01/07 01:53:50;;;;;;;12.15;6.60;;;-0.60;99.90;;;;;;5050967;28;20229;-62
2021/01/07 01:56:17;;;;;;;11.80;6.72;;;-0.60;99.90;;;;;;5061128;28;20185;-62
2021/01/07 01:58:43;;;;;;;10.77;6.85;;;-0.60;99.90;;;;;;5044241;28;20174;-62
2021/01/07 02:01:09;;;;;;;12.68;6.72;;;-0.60;99.90;;;;;;5060004;28;20183;-62
2021/01/07 02:03:39;;;;;;;13.02;6.47;;;-0.60;99.90;;;;;;5059951;28;20182;-62
2021/01/07 02:06:05;;;;;;;11.10;6.15;;;-0.60;99.90;;;;;;5057715;28;20175;-63
2021/01/07 02:08:31;;;;;;;11.20;6.32;;;-0.60;99.90;;;;;;5044763;28;20179;-62
2021/01/07 02:10:58;;;;;;;10.68;6.40;;;-0.60;99.90;;;;;;5048164;28;20178;-62
2021/01/07 02:13:24;;;;;;;11.13;6.78;;;-0.60;99.90;;;;;;5062672;28;20650;-62
2021/01/07 02:15:51;;;;;;;11.02;6.40;;;-0.60;99.90;;;;;;5055452;28;20190;-63
2021/01/07 02:18:17;;;;;;;10.98;6.82;;;-0.60;99.90;;;;;;5056697;28;20178;-62
2021/01/07 02:20:43;;;;;;;11.38;6.97;;;-0.60;99.90;;;;;;5060517;28;20179;-62
2021/01/07 02:23:11;;;;;;;12.30;6.90;;;-0.60;99.90;;;;;;5065037;28;20190;-63
2021/01/07 02:25:38;;;;;;;11.07;6.63;;;-0.60;99.90;;;;;;5059782;28;20221;-64
2021/01/07 02:28:04;;;;;;;11.85;6.93;;;-0.70;99.90;;;;;;5050103;28;20194;-63
2021/01/07 02:30:30;;;;;;;12.85;6.88;;;-0.70;99.90;;;;;;5050845;28;20179;-62
2021/01/07 02:32:56;;;;;;;11.95;6.45;;;-0.70;99.90;;;;;;5050893;28;20201;-62
2021/01/07 02:35:22;;;;;;;11.68;6.45;;;-0.70;99.90;;;;;;5051119;28;20170;-62
2021/01/07 02:37:48;;;;;;;11.55;6.20;;;-0.70;99.90;;;;;;5057358;28;20186;-62
2021/01/07 02:40:15;;;;;;;11.05;6.60;;;-0.60;99.90;;;;;;5061983;28;20201;-62
2021/01/07 02:42:41;;;;;;;14.57;7.35;;;-0.60;99.90;;;;;;5055402;28;20184;-62
2021/01/07 02:45:10;;;;;;;11.45;6.53;;;-0.50;99.90;;;;;;5054466;28;20167;-62
2021/01/07 02:47:37;;;;;;;10.65;6.85;;;-0.60;99.90;;;;;;5064944;28;20521;-62
2021/01/07 02:50:04;;;;;;;10.65;6.47;;;-0.60;99.90;;;;;;5060818;28;20177;-62
2021/01/07 02:52:31;;;;;;;10.32;6.60;;;-0.60;99.90;;;;;;5070768;28;20198;-62
2021/01/07 02:54:57;;;;;;;10.77;6.18;;;-0.60;99.90;;;;;;5060561;28;20183;-62
2021/01/07 02:57:23;;;;;;;12.13;6.97;;;-0.60;99.90;;;;;;5063842;28;20189;-61
2021/01/07 02:59:49;;;;;;;13.60;6.38;;;-0.60;99.90;;;;;;5067190;28;20181;-63
2021/01/07 03:02:15;;;;;;;12.57;7.05;;;-0.60;99.90;;;;;;5062269;28;20173;-61
2021/01/07 03:04:42;;;;;;;11.45;6.43;;;-0.60;99.90;;;;;;5066817;28;20171;-61
2021/01/07 03:07:08;;;;;;;11.90;6.18;;;-0.70;99.90;;;;;;5070289;28;20277;-62
2021/01/07 03:09:34;;;;;;;10.27;6.53;;;-0.60;99.90;;;;;;5057899;28;20178;-63
2021/01/07 03:12:13;;;;;;;12.75;6.75;;;-0.60;99.90;;;;;;5065617;28;20199;-62
2021/01/07 03:14:39;;;;;;;11.02;6.20;;;-0.60;99.90;;;;;;5064686;28;20178;-62
2021/01/07 03:17:06;;;;;;;12.70;6.75;;;-0.60;99.90;;;;;;5051876;28;20194;-66
2021/01/07 03:19:32;;;;;;;11.63;6.65;;;-0.60;99.90;;;;;;5059121;28;20178;-61
2021/01/07 03:21:58;;;;;;;14.30;6.18;;;-0.60;99.90;;;;;;5068020;28;20178;-61
2021/01/07 03:24:24;;;;;;;12.50;6.55;;;-0.60;99.90;;;;;;5064350;28;20179;-61
2021/01/07 03:26:51;;;;;;;10.65;6.10;;;-0.60;99.90;;;;;;5057393;28;20217;-61
2021/01/07 03:29:17;;;;;;;11.43;6.82;;;-0.60;99.90;;;;;;5062922;28;20185;-62
2021/01/07 03:31:43;;;;;;;12.65;7.30;;;-0.60;99.90;;;;;;5063761;28;20181;-62
2021/01/07 03:34:09;;;;;;;11.63;6.95;;;-0.60;99.90;;;;;;5070193;28;20217;-62
2021/01/07 03:36:35;;;;;;;11.73;7.03;;;-0.60;99.90;;;;;;5058270;28;20183;-62
2021/01/07 03:39:02;;;;;;;12.48;6.60;;;-0.60;99.90;;;;;;5053267;28;20666;-62
2021/01/07 03:41:28;;;;;;;10.93;6.60;;;-0.60;99.90;;;;;;5060712;28;20179;-62
2021/01/07 03:43:54;;;;;;;13.48;7.25;;;-0.60;99.90;;;;;;5059148;28;20198;-61
2021/01/07 03:46:20;;;;;;;12.32;6.22;;;-0.60;99.90;;;;;;5060398;28;20520;-62
2021/01/07 03:48:47;;;;;;;12.32;7.22;;;-0.60;99.90;;;;;;5053362;28;20183;-62
2021/01/07 03:51:13;;;;;;;10.82;6.53;;;-0.60;99.90;;;;;;5051613;28;20206;-61
2021/01/07 03:53:39;;;;;;;13.63;6.68;;;-0.70;99.90;;;;;;5053505;28;20217;-62
2021/01/07 03:56:05;;;;;;;12.07;6.85;;;-0.60;99.90;;;;;;5058221;28;20190;-61
2021/01/07 03:58:31;;;;;;;12.10;6.78;;;-0.60;99.90;;;;;;5059560;28;20181;-62
2021/01/07 04:00:57;;;;;;;14.18;7.40;;;-0.60;99.90;;;;;;5051231;28;20212;-61
2021/01/07 04:03:24;;;;;;;10.32;6.25;;;-0.60;99.90;;;;;;5056022;28;20536;-61
2021/01/07 04:05:50;;;;;;;13.73;7.22;;;-0.70;99.90;;;;;;5057406;28;20189;-62
2021/01/07 04:08:16;;;;;;;14.15;6.60;;;-0.60;99.90;;;;;;5051556;28;20187;-62
2021/01/07 04:10:42;;;;;;;13.98;7.72;;;-0.60;99.90;;;;;;5052946;28;20678;-62
2021/01/07 04:13:08;;;;;;;13.43;7.32;;;-0.60;99.90;;;;;;5053881;28;20209;-62
2021/01/07 04:15:34;;;;;;;15.98;7.15;;;-0.60;99.90;;;;;;5055045;28;20193;-62
2021/01/07 04:18:00;;;;;;;10.93;6.32;;;-0.60;99.90;;;;;;5063938;28;20595;-62
2021/01/07 04:20:27;;;;;;;11.45;6.80;;;-0.60;99.90;;;;;;5058469;28;20187;-62
2021/01/07 04:22:53;;;;;;;11.27;6.85;;;-0.60;99.90;;;;;;5053754;28;20194;-62
2021/01/07 04:25:19;;;;;;;12.75;6.45;;;-0.60;99.90;;;;;;5063146;28;20214;-62
2021/01/07 04:27:45;;;;;;;10.30;6.20;;;-0.60;99.90;;;;;;5061817;28;20199;-62
2021/01/07 04:30:12;;;;;;;10.75;6.35;;;-0.60;99.90;;;;;;5052679;28;20186;-62
2021/01/07 04:32:38;;;;;;;8.73;5.47;;;-0.60;99.90;;;;;;5055912;28;20214;-62
2021/01/07 04:35:05;;;;;;;8.95;5.65;;;-0.60;99.90;;;;;;5058162;28;20197;-62
2021/01/07 04:37:31;;;;;;;12.13;6.22;;;-0.60;99.90;;;;;;5057393;28;20737;-62
2021/01/07 04:39:57;;;;;;;11.02;6.00;;;-0.50;99.90;;;;;;5061168;28;20189;-62
2021/01/07 04:42:24;;;;;;;9.50;5.15;;;-0.60;99.90;;;;;;5062121;28;20642;-62
2021/01/07 04:44:50;;;;;;;11.20;6.30;;;-0.60;99.90;;;;;;5061185;28;20548;-62
2021/01/07 04:47:16;;;;;;;9.77;5.72;;;-0.60;99.90;;;;;;5044899;28;20182;-62
2021/01/07 04:49:43;;;;;;;8.43;5.65;;;-0.50;99.90;;;;;;5052459;28;20175;-62
2021/01/07 04:52:09;;;;;;;13.82;6.50;;;-0.60;99.90;;;;;;5053953;28;20181;-63
2021/01/07 04:54:35;;;;;;;12.02;6.28;;;-0.50;99.90;;;;;;5056483;28;20196;-62
2021/01/07 04:57:02;;;;;;;9.43;5.57;;;-0.50;99.90;;;;;;5054973;28;20198;-62
2021/01/07 04:59:28;;;;;;;10.30;6.05;;;-0.50;99.90;;;;;;5052423;28;20654;-63
2021/01/07 05:01:54;;;;;;;11.00;5.55;;;-0.50;99.90;;;;;;5052193;28;20515;-63
2021/01/07 05:04:20;;;;;;;10.38;5.95;;;-0.50;99.90;;;;;;5050382;28;20189;-62
2021/01/07 05:06:49;;;;;;;11.10;5.80;;;-0.40;99.90;;;;;;5050481;28;20190;-62
2021/01/07 05:09:15;;;;;;;9.40;5.38;;;-0.50;99.90;;;;;;5052243;28;20190;-62
2021/01/07 05:11:42;;;;;;;12.57;5.80;;;-0.40;99.90;;;;;;5049735;28;20178;-63
2021/01/07 05:14:09;;;;;;;9.07;5.60;;;-0.40;99.90;;;;;;5051274;28;20210;-62
2021/01/07 05:16:35;;;;;;;12.10;5.95;;;-0.40;99.90;;;;;;5052292;28;20199;-62
2021/01/07 05:19:06;;;;;;;14.95;6.45;;;-0.40;99.90;;;;;;5065154;28;20626;-62
2021/01/07 05:21:33;;;;;;;8.52;5.45;;;-0.40;99.90;;;;;;5050919;28;20199;-62
2021/01/07 05:23:59;;;;;;;11.05;6.10;;;-0.40;99.90;;;;;;5051525;28;20250;-63
2021/01/07 05:26:25;;;;;;;14.85;6.15;;;-0.40;99.90;;;;;;5050470;28;20284;-62
2021/01/07 05:28:56;;;;;;;11.68;6.28;;;-0.40;99.90;;;;;;5050417;28;20546;-62
2021/01/07 05:31:23;;;;;;;11.98;6.05;;;-0.40;99.90;;;;;;5047673;28;20561;-62
2021/01/07 05:33:50;;;;;;;13.80;5.90;;;-0.40;99.90;;;;;;5057800;28;20220;-62
2021/01/07 05:36:17;;;;;;;15.27;5.70;;;-0.40;99.90;;;;;;5062263;28;20554;-62
2021/01/07 05:38:43;;;;;;;9.82;5.45;;;-0.40;99.90;;;;;;5050233;28;20182;-62
2021/01/07 05:41:12;;;;;;;11.02;5.43;;;-0.40;99.90;;;;;;5048137;28;20202;-62
2021/01/07 05:43:38;;;;;;;13.90;5.82;;;-0.40;99.90;;;;;;5056875;28;20178;-62
2021/01/07 05:46:07;;;;;;;13.18;5.00;;;-0.40;99.90;;;;;;5045710;28;20186;-63
2021/01/07 05:48:33;;;;;;;8.32;5.32;;;-0.40;99.90;;;;;;5050667;28;20201;-63
2021/01/07 05:51:02;;;;;;;12.98;5.32;;;-0.40;99.90;;;;;;5022746;28;20179;-62
2021/01/07 05:53:29;;;;;;;10.23;5.90;;;-0.40;99.90;;;;;;5047785;28;20218;-63
2021/01/07 05:55:55;;;;;;;12.63;5.63;;;-0.40;99.90;;;;;;5052346;28;20158;-63
2021/01/07 05:58:23;;;;;;;13.45;5.78;;;-0.40;99.90;;;;;;5056885;28;20174;-63
2021/01/07 06:00:49;;;;;;;10.07;5.75;;;-0.40;99.90;;;;;;5049381;28;20182;-63
2021/01/07 06:03:15;;;;;;;10.77;5.63;;;-0.40;99.90;;;;;;5056990;28;20202;-62
2021/01/07 06:05:42;;;;;;;11.10;5.78;;;-0.30;99.90;;;;;;5050064;28;20175;-63
2021/01/07 06:08:08;;;;;;;12.00;6.18;;;-0.30;99.90;;;;;;5034652;28;20179;-65
2021/01/07 06:10:34;;;;;;;11.65;6.05;;;-0.30;99.90;;;;;;5047321;28;20170;-62
2021/01/07 06:13:00;;;;;;;10.75;5.93;;;-0.40;99.90;;;;;;5060321;28;20194;-62
2021/01/07 06:15:26;;;;;;;12.77;5.97;;;-0.40;99.90;;;;;;5066814;28;20204;-62
2021/01/07 06:17:53;;;;;;;8.88;5.32;;;-0.40;99.90;;;;;;5047623;28;20642;-62
2021/01/07 06:20:20;;;;;;;11.05;5.72;;;-0.40;99.90;;;;;;5061702;28;20176;-62
2021/01/07 06:22:51;;;;;;;10.75;6.22;;;-0.40;99.90;;;;;;5068704;28;20166;-62
2021/01/07 06:25:19;;;;;;;14.10;5.90;;;-0.30;99.90;;;;;;5065132;28;20209;-62
2021/01/07 06:27:46;;;;;;;10.65;5.75;;;-0.40;99.90;;;;;;5070576;28;20181;-62
2021/01/07 06:30:12;;;;;;;10.15;6.10;;;-0.30;99.90;;;;;;5070494;28;20627;-62
2021/01/07 06:32:39;;;;;;;11.43;6.28;;;-0.30;99.90;;;;;;5062740;28;20540;-62
2021/01/07 06:35:09;;;;;;;12.43;6.07;;;-0.30;99.90;;;;;;5060094;28;20182;-62
2021/01/07 06:37:42;;;;;;;11.07;6.30;;;-0.30;99.90;;;;;;5054860;28;20186;-62
2021/01/07 06:40:12;;;;;;;11.70;6.28;;;-0.30;99.90;;;;;;5061078;28;20545;-62
2021/01/07 06:42:49;;;;;;;12.70;6.30;;;-0.30;99.90;;;;;;5065302;28;20184;-62
2021/01/07 06:45:15;;;;;;;14.43;6.25;;;-0.30;99.90;;;;;;5065589;28;20165;-62
2021/01/07 06:47:44;;;;;;;13.18;6.10;;;-0.30;99.90;;;;;;5063115;28;20181;-62
2021/01/07 06:50:12;;;;;;;11.63;6.13;;;-0.30;99.90;;;;;;5054925;28;20179;-62
2021/01/07 06:52:45;;;;;;;13.52;6.28;;;-0.30;99.90;;;;;;5057832;28;20187;-62
2021/01/07 06:55:18;;;;;;;14.95;6.43;;;-0.30;99.90;;;;;;5054432;28;20183;-62
2021/01/07 06:57:57;;;;;;;10.52;5.97;;;-0.20;99.90;;;;;;5067145;28;20174;-63
2021/01/07 07:00:25;;;;;;;15.10;6.38;;;-0.20;99.90;;;;;;5065533;28;20174;-63
2021/01/07 07:03:04;;;;;;;10.27;6.53;;;-0.30;99.90;;;;;;5072279;28;20185;-63
2021/01/07 07:05:32;;;;;;;13.63;6.43;;;-0.30;99.90;;;;;;5064438;28;20166;-63
2021/01/07 07:08:11;;;;;;;9.55;5.95;;;-0.30;99.90;;;;;;5059605;28;20182;-63
2021/01/07 07:10:37;;;;;;;15.45;6.53;;;-0.30;99.90;;;;;;5054206;28;20185;-63
2021/01/07 07:13:20;;;;;;;11.95;6.43;;;-0.20;99.90;;;;;;5061130;28;20212;-63
2021/01/07 07:15:47;;;;;;;11.38;6.53;;;-0.20;99.90;;;;;;5063135;28;20199;-63
2021/01/07 07:18:13;;;;;;;11.60;6.40;;;-0.30;99.90;;;;;;5059879;28;20620;-63
2021/01/07 07:20:40;;;;;;;13.02;6.38;;;-0.30;99.90;;;;;;5058794;28;20190;-63
2021/01/07 07:23:19;;;;;;;11.50;6.20;;;-0.20;99.90;;;;;;5065133;28;20181;-61
2021/01/07 07:25:52;;;;;;;10.38;6.72;;;-0.20;99.90;;;;;;5065786;28;20710;-61
2021/01/07 07:28:19;;;;;;;11.38;6.68;;;-0.20;99.90;;;;;;5038633;28;20166;-61
2021/01/07 07:30:46;;;;;;;14.35;7.43;;;-0.20;99.90;;;;;;5062871;28;20166;-61
2021/01/07 07:33:33;;;;;;;12.27;7.40;;;-0.30;99.90;;;;;;5059981;28;20199;-61
2021/01/07 07:35:59;;;;;;;12.77;6.72;;;-0.20;99.90;;;;;;5063623;28;20198;-61
2021/01/07 07:38:33;;;;;;;15.10;7.30;;;-0.20;99.90;;;;;;5051519;28;20639;-61
2021/01/07 07:41:04;;;;;;;10.10;6.35;;;-0.30;99.90;;;;;;5053316;28;20178;-62
2021/01/07 07:43:31;;;;;;;11.35;6.88;;;-0.30;99.90;;;;;;5051497;28;20191;-62
2021/01/07 07:45:57;;;;;;;11.20;6.75;;;-0.20;99.90;;;;;;5051705;28;20190;-62
2021/01/07 07:48:28;;;;;;;12.35;6.47;;;-0.30;99.90;;;;;;5058491;28;20507;-61
2021/01/07 07:51:10;;;;;;;12.57;7.18;;;-0.30;99.90;;;;;;5050397;28;20537;-61
2021/01/07 07:53:37;;;;;;;14.50;6.68;;;-0.30;99.90;;;;;;5051017;28;20213;-61
2021/01/07 07:56:24;;;;;;;16.33;7.72;;;-0.30;99.90;;;;;;5053998;28;20528;-62
2021/01/07 07:59:06;;;;;;;16.58;6.78;;;-0.30;99.90;;;;;;5056000;28;20190;-62
2021/01/07 08:01:46;;;;;;;13.65;7.43;;;-0.30;99.90;;;;;;5058124;28;20186;-62
2021/01/07 08:04:14;;;;;;;13.43;6.45;;;-0.30;99.90;;;;;;5049943;28;20186;-62
2021/01/07 08:06:40;;;;;;;14.88;7.10;;;-0.20;99.90;;;;;;5053395;28;20177;-63
2021/01/07 08:09:08;;;;;;;12.80;6.78;;;-0.20;99.90;;;;;;5048706;28;20190;-62
2021/01/07 08:11:44;;;;;;;10.95;6.68;;;-0.20;99.90;;;;;;5056524;28;20599;-62
2021/01/07 08:14:11;;;;;;;12.63;7.53;;;-0.30;99.90;;;;;;5049569;28;20666;-62
2021/01/07 08:16:38;;;;;;;10.55;6.38;;;-0.30;99.90;;;;;;5051443;28;20217;-62
2021/01/07 08:19:15;;;;;;;10.52;6.63;;;-0.30;99.90;;;;;;5050660;28;20183;-62
2021/01/07 08:21:48;;;;;;;12.15;6.85;;;-0.30;99.90;;;;;;5052966;28;20186;-62
2021/01/07 08:24:15;;;;;;;11.73;6.72;;;-0.30;99.90;;;;;;5053736;28;20194;-62
2021/01/07 08:26:43;;;;;;;11.65;6.57;;;-0.40;99.90;;;;;;5052992;28;20815;-62
2021/01/07 08:29:09;;;;;;;12.25;7.10;;;-0.30;99.90;;;;;;5034764;28;20560;-62
2021/01/07 08:31:38;;;;;;;12.55;6.80;;;-0.30;99.90;;;;;;5051944;28;20190;-63
2021/01/07 08:34:05;;;;;;;14.68;6.90;;;-0.30;99.90;;;;;;5050264;28;20206;-63
2021/01/07 08:36:31;;;;;;;11.63;6.85;;;-0.20;99.90;;;;;;5032326;28;20170;-62
2021/01/07 08:38:57;;;;;;;11.68;6.10;;;-0.20;99.90;;;;;;5052634;28;20562;-62
2021/01/07 08:41:26;;;;;;;12.70;7.03;;;-0.20;99.90;;;;;;5052960;28;20178;-62
2021/01/07 08:43:54;;;;;;;11.23;6.28;;;-0.30;99.90;;;;;;5050964;28;20193;-62
2021/01/07 08:46:22;;;;;;;13.52;7.10;;;-0.30;99.90;;;;;;5053297;28;20635;-62
2021/01/07 08:49:05;;;;;;;15.73;6.50;;;-0.30;99.90;;;;;;5056156;28;20174;-61
2021/01/07 08:51:41;;;;;;;11.23;6.55;;;-0.20;99.90;;;;;;5050210;28;20159;-62
2021/01/07 08:54:13;;;;;;;12.68;7.10;;;-0.30;99.90;;;;;;5052845;28;20229;-62
2021/01/07 08:56:43;;;;;;;10.77;6.80;;;-0.30;99.90;;;;;;5052831;28;20542;-62
2021/01/07 08:59:26;;;;;;;11.65;6.47;;;-0.20;99.90;;;;;;5047577;28;20189;-63
2021/01/07 09:01:54;;;;;;;10.23;6.65;;;-0.20;99.90;;;;;;5046833;28;20194;-62
2021/01/07 09:04:27;;;;;;;10.98;6.38;;;-0.20;99.90;;;;;;5049948;28;20181;-62
2021/01/07 09:06:59;;;;;;;12.95;6.88;;;-0.20;99.90;;;;;;5049993;28;20159;-63
2021/01/07 09:09:25;;;;;;;16.90;6.30;;;-0.20;99.90;;;;;;5052507;28;20169;-63
2021/01/07 09:12:22;;;;;;;17.08;7.10;;;-0.20;99.90;;;;;;5050101;28;20178;-62
2021/01/07 09:14:55;;;;;;;12.52;6.90;;;-0.10;99.90;;;;;;5052228;28;20214;-62
2021/01/07 09:17:26;;;;;;;11.40;6.55;;;-0.10;99.90;;;;;;5051005;28;20182;-62
2021/01/07 09:19:52;;;;;;;14.20;6.65;;;-0.10;99.90;;;;;;5054230;28;20179;-63
2021/01/07 09:22:20;;;;;;;13.27;6.22;;;-0.10;99.90;;;;;;5052121;28;20182;-62
2021/01/07 09:24:46;;;;;;;10.02;6.00;;;-0.10;99.90;;;;;;5050528;28;20257;-62
2021/01/07 09:27:18;;;;;;;9.23;5.40;;;-0.10;99.90;;;;;;5051272;28;20197;-62
2021/01/07 09:29:44;;;;;;;9.38;5.63;;;0.00;99.90;;;;;;5051877;28;20203;-62
2021/01/07 09:32:10;;;;;;;9.32;5.63;;;0.00;99.90;;;;;;5048897;28;20566;-62
2021/01/07 09:34:37;;;;;;;10.85;5.32;;;0.10;99.90;;;;;;5052530;28;20210;-62
2021/01/07 09:37:24;;;;;;;9.95;5.47;;;0.10;99.90;;;;;;5049505;28;20178;-62
2021/01/07 09:39:51;;;;;;;8.90;5.03;;;0.00;99.90;;;;;;5051218;28;20190;-63
2021/01/07 09:42:18;;;;;;;8.85;4.85;;;0.10;99.90;;;;;;5050307;28;20166;-62
2021/01/07 09:44:48;;;;;;;9.30;5.25;;;0.10;99.90;;;;;;5050814;28;20179;-62
2021/01/07 09:47:15;;;;;;;11.35;5.95;;;0.20;99.90;;;;;;5048859;28;20171;-63
2021/01/07 09:49:41;;;;;;;7.00;4.88;;;0.20;99.90;;;;;;5051857;28;20171;-62
2021/01/07 09:52:07;;;;;;;10.60;5.78;;;0.10;99.90;;;;;;5051437;28;20242;-63
2021/01/07 09:54:33;;;;;;;10.38;5.38;;;0.20;99.90;;;;;;5049469;28;20214;-62
2021/01/07 09:57:00;;;;;;;10.23;5.53;;;0.20;99.90;;;;;;5049867;28;20171;-62
2021/01/07 09:59:28;;;;;;;9.82;5.18;;;0.20;99.90;;;;;;5049796;28;20187;-62
2021/01/07 10:01:55;;;;;;;8.73;5.03;;;0.20;99.90;;;;;;5051038;28;20190;-63
2021/01/07 10:04:22;;;;;;;9.13;4.93;;;0.20;99.90;;;;;;5051290;28;20174;-63
2021/01/07 10:06:48;;;;;;;8.02;5.05;;;0.20;99.90;;;;;;5048756;28;20178;-62
2021/01/07 10:09:15;;;;;;;9.68;5.28;;;0.20;99.90;;;;;;5051001;28;20631;-62
2021/01/07 10:11:41;;;;;;;11.65;4.90;;;0.30;99.90;;;;;;5050351;28;20166;-63
2021/01/07 10:14:07;;;;;;;8.65;5.43;;;0.30;99.90;;;;;;5050328;28;20218;-62
2021/01/07 10:16:33;;;;;;;7.68;4.68;;;0.20;99.90;;;;;;5045894;28;20544;-62
2021/01/07 10:19:00;;;;;;;9.35;5.75;;;0.20;99.90;;;;;;5047025;28;20624;-62
2021/01/07 10:21:26;;;;;;;15.88;5.65;;;0.30;99.90;;;;;;5050718;28;20521;-62
2021/01/07 10:23:52;;;;;;;8.93;5.32;;;0.30;99.90;;;;;;5050565;28;20182;-62
2021/01/07 10:26:19;;;;;;;7.90;5.43;;;0.20;99.90;;;;;;5050167;28;20765;-62
2021/01/07 10:28:46;;;;;;;8.52;5.18;;;0.20;99.90;;;;;;5050113;28;20170;-62
2021/01/07 10:31:13;;;;;;;13.73;7.32;;;0.30;99.90;;;;;;5051075;28;20186;-63
2021/01/07 10:33:41;;;;;;;9.68;5.05;;;0.30;99.90;;;;;;5051069;28;20207;-62
2021/01/07 10:36:07;;;;;;;9.55;5.63;;;0.30;99.90;;;;;;5051069;28;20193;-62
2021/01/07 10:38:33;;;;;;;12.13;5.30;;;0.40;99.90;;;;;;5050751;28;20182;-62
2021/01/07 10:40:59;;;;;;;10.63;5.45;;;0.40;99.90;;;;;;5049853;28;20183;-61
2021/01/07 10:43:26;;;;;;;10.57;5.40;;;0.40;99.90;;;;;;5033035;28;20167;-61
2021/01/07 10:45:52;;;;;;;9.90;5.78;;;0.30;99.90;;;;;;5022462;28;20193;-62
2021/01/07 10:48:20;;;;;;;11.10;5.72;;;0.30;99.90;;;;;;5049648;28;20186;-61
2021/01/07 10:50:47;;;;;;;9.80;5.65;;;0.40;99.90;;;;;;5032993;28;20190;-61
2021/01/07 10:53:13;;;;;;;10.65;6.35;;;0.40;99.90;;;;;;5050043;28;20171;-62
2021/01/07 10:55:52;;;;;;;10.43;6.18;;;0.40;99.90;;;;;;5050794;28;20202;-62
2021/01/07 10:58:34;;;;;;;9.57;5.80;;;0.40;99.90;;;;;;5054056;28;20165;-62
2021/01/07 11:01:36;;;;;;;12.30;5.68;;;0.40;99.90;;;;;;5057856;28;20178;-61
2021/01/07 11:04:06;;;;;;;14.73;6.25;;;0.50;99.90;;;;;;5037961;28;20665;-62
2021/01/07 11:06:33;;;;;;;9.93;6.28;;;0.50;99.90;;;;;;5056503;28;20543;-61
2021/01/07 11:09:26;;;;;;;9.82;5.57;;;0.50;99.90;;;;;;5052589;28;20186;-62
2021/01/07 11:12:00;;;;;;;12.00;5.78;;;0.50;99.90;;;;;;5050359;28;20182;-62
2021/01/07 11:14:39;;;;;;;11.55;6.28;;;0.50;99.90;;;;;;5053006;28;20749;-61
2021/01/07 11:17:07;;;;;;;10.07;5.82;;;0.50;99.90;;;;;;5052763;28;20194;-61
2021/01/07 11:19:33;;;;;;;12.32;7.13;;;0.50;99.90;;;;;;5053183;28;20210;-63
2021/01/07 11:22:12;;;;;;;8.65;5.50;;;0.60;99.90;;;;;;5035720;28;20182;-62
2021/01/07 11:24:42;;;;;;;8.07;5.07;;;0.50;99.90;;;;;;5053369;28;20195;-63
2021/01/07 11:27:10;;;;;;;10.27;5.90;;;0.50;99.90;;;;;;5054486;28;20218;-61
2021/01/07 11:29:36;;;;;;;9.48;5.63;;;0.60;99.90;;;;;;5054660;28;20178;-62
2021/01/07 11:32:03;;;;;;;8.68;5.70;;;0.50;99.90;;;;;;5055661;28;20186;-61
2021/01/07 11:34:29;;;;;;;10.77;6.22;;;0.50;99.90;;;;;;5060282;28;20651;-62
2021/01/07 11:37:14;;;;;;;10.15;6.20;;;0.50;99.90;;;;;;5061481;28;20170;-61
2021/01/07 11:40:07;;;;;;;8.35;5.28;;;0.50;99.90;;;;;;5060434;28;20193;-62
2021/01/07 11:42:44;;;;;;;8.93;5.45;;;0.50;99.90;;;;;;5074372;28;20193;-61
2021/01/07 11:45:16;;;;;;;11.95;6.90;;;0.50;99.90;;;;;;5037398;28;20675;-61
2021/01/07 11:47:54;;;;;;;12.30;6.68;;;0.50;99.90;;;;;;5064857;28;20166;-61
2021/01/07 11:50:26;;;;;;;7.95;5.50;;;0.40;99.90;;;;;;5062881;28;20159;-61
2021/01/07 11:52:55;;;;;;;12.23;6.55;;;0.50;99.90;;;;;;5060017;28;20185;-61
2021/01/07 11:55:21;;;;;;;9.50;6.30;;;0.50;99.90;;;;;;5060154;28;20210;-61
2021/01/07 11:57:48;;;;;;;9.40;5.93;;;0.50;99.90;;;;;;5060241;28;20191;-61
2021/01/07 12:00:15;;;;;;;9.65;5.93;;;0.50;99.90;;;;;;5062099;28;20170;-61
2021/01/07 12:02:41;;;;;;;10.30;5.82;;;0.50;99.90;;;;;;5060017;28;20194;-61
2021/01/07 12:05:14;;;;;;;17.70;6.35;;;0.40;99.90;;;;;;5058964;28;20178;-61
2021/01/07 12:08:03;;;;;;;10.63;5.30;;;0.40;99.90;;;;;;5050679;28;20179;-61
2021/01/07 12:10:30;;;;;;;14.77;6.03;;;0.40;99.90;;;;;;5049020;28;20562;-61
2021/01/07 12:13:25;;;;;;;11.23;6.30;;;0.40;99.90;;;;;;5061570;28;20182;-61
2021/01/07 12:15:52;;;;;;;9.15;5.30;;;0.50;99.90;;;;;;5060870;28;20230;-61
2021/01/07 12:18:18;;;;;;;10.25;6.07;;;0.50;99.90;;;;;;5061270;28;20169;-61
2021/01/07 12:20:46;;;;;;;10.13;5.75;;;0.40;99.90;;;;;;5057983;28;20181;-61
2021/01/07 12:23:16;;;;;;;11.18;6.35;;;0.40;99.90;;;;;;5035359;28;20174;-61
2021/01/07 12:25:42;;;;;;;9.70;6.38;;;0.40;99.90;;;;;;5054040;28;20214;-61
2021/01/07 12:28:18;;;;;;;8.82;5.30;;;0.40;99.90;;;;;;5060487;28;20185;-61
2021/01/07 12:30:46;;;;;;;9.05;5.63;;;0.40;99.90;;;;;;5059850;28;20181;-61
2021/01/07 12:33:37;;;;;;;10.32;5.30;;;0.40;99.90;;;;;;5063445;28;20177;-61
2021/01/07 12:36:20;;;;;;;10.43;6.28;;;0.30;99.90;;;;;;5054823;28;20202;-61
2021/01/07 12:38:53;;;;;;;11.43;5.82;;;0.40;99.90;;;;;;5053661;28;20193;-61
2021/01/07 12:41:24;;;;;;;8.98;5.50;;;0.40;99.90;;;;;;5052413;28;20195;-61
2021/01/07 12:43:52;;;;;;;9.52;5.25;;;0.40;99.90;;;;;;5052157;28;20157;-61
2021/01/07 12:46:21;;;;;;;11.07;5.55;;;0.30;99.90;;;;;;5037383;28;20623;-61
2021/01/07 12:48:48;;;;;;;9.15;5.63;;;0.30;99.90;;;;;;5051023;28;20611;-61